createdAt,value
2023-01-10T08:06:06.989Z,6.56
2023-01-10T08:07:06.943Z,6.54
2023-01-10T08:08:06.947Z,6.50
2023-01-10T08:09:06.905Z,6.53
2023-01-10T08:10:06.904Z,6.41
2023-01-10T08:11:06.899Z,6.36
2023-01-10T08:12:06.882Z,6.48
2023-01-10T08:13:18.363Z,6.47
2023-01-10T08:14:07.897Z,6.36
2023-01-10T08:15:06.852Z,6.40
2023-01-10T08:16:06.880Z,6.58
2023-01-10T08:17:06.828Z,6.35
2023-01-10T08:18:06.824Z,6.44
2023-01-10T08:19:06.793Z,6.38
2023-01-10T08:20:06.791Z,6.28
2023-01-10T08:21:06.778Z,6.48
2023-01-10T08:22:06.814Z,6.47
2023-01-10T08:23:06.768Z,6.46
2023-01-10T08:24:06.731Z,6.47
2023-01-10T08:25:06.760Z,6.46
2023-01-10T08:26:06.714Z,6.41
2023-01-10T08:27:06.716Z,6.47
2023-01-10T08:28:06.702Z,6.40
2023-01-10T08:29:06.694Z,6.44
2023-01-10T08:30:06.697Z,6.48
2023-01-10T08:31:06.731Z,6.48
2023-01-10T08:32:06.645Z,6.47
2023-01-10T08:33:06.651Z,6.44
2023-01-10T08:34:06.635Z,6.46
2023-01-10T08:35:06.659Z,6.56
2023-01-10T08:36:06.598Z,6.59
2023-01-10T08:37:06.603Z,6.58
2023-01-10T08:38:06.606Z,6.56
2023-01-10T08:39:06.567Z,6.65
2023-01-10T08:40:06.580Z,6.51
2023-01-10T08:41:06.542Z,6.63
2023-01-10T08:42:06.555Z,6.54
2023-01-10T08:43:06.544Z,6.56
2023-01-10T08:44:06.505Z,6.65
2023-01-10T08:45:06.524Z,6.56
2023-01-10T08:46:06.494Z,6.62
2023-01-10T08:47:06.483Z,6.54
2023-01-10T08:48:06.460Z,6.65
2023-01-10T08:49:06.466Z,6.61
2023-01-10T08:50:08.013Z,6.66
2023-01-10T08:51:06.433Z,6.65
2023-01-10T08:52:06.430Z,6.68
2023-01-10T08:53:06.420Z,6.59
2023-01-10T08:54:06.425Z,6.59
2023-01-10T08:55:06.423Z,6.69
2023-01-10T08:56:06.383Z,6.71
2023-01-10T08:57:06.364Z,6.76
2023-01-10T08:58:06.351Z,6.71
2023-01-10T08:59:06.362Z,6.76
2023-01-10T09:00:06.350Z,6.72
2023-01-10T09:01:06.366Z,6.79
2023-01-10T09:02:06.370Z,6.76
2023-01-10T09:03:06.387Z,6.84
2023-01-10T09:04:06.288Z,6.86
2023-01-10T09:05:09.819Z,6.89
2023-01-10T09:06:07.271Z,6.79
2023-01-10T09:07:06.263Z,7.01
2023-01-10T09:08:06.257Z,6.98
2023-01-10T09:09:06.227Z,6.94
2023-01-10T09:10:06.257Z,6.91
2023-01-10T09:11:06.221Z,7.01
2023-01-10T09:12:06.209Z,6.95
2023-01-10T09:13:06.179Z,6.99
2023-01-10T09:14:06.176Z,7.01
2023-01-10T09:15:06.173Z,7.01
2023-01-10T09:16:06.221Z,7.02
2023-01-10T09:17:06.156Z,7.09
2023-01-10T09:18:06.151Z,7.12
2023-01-10T09:19:06.137Z,7.08
2023-01-10T09:20:06.107Z,7.22
2023-01-10T09:21:06.101Z,7.17
2023-01-10T09:22:06.986Z,7.20
2023-01-10T09:23:06.081Z,7.12
2023-01-10T09:24:06.065Z,7.24
2023-01-10T09:25:06.069Z,7.20
2023-01-10T09:26:06.079Z,7.22
2023-01-10T09:27:06.029Z,7.29
2023-01-10T09:28:06.012Z,7.24
2023-01-10T09:29:06.000Z,7.24
2023-01-10T09:30:06.047Z,7.32
2023-01-10T09:31:06.070Z,7.29
2023-01-10T09:32:05.968Z,7.32
2023-01-10T09:33:05.958Z,7.34
2023-01-10T09:34:05.965Z,7.37
2023-01-10T09:35:05.971Z,7.41
2023-01-10T09:36:05.926Z,7.41
2023-01-10T09:37:05.915Z,7.52
2023-01-10T09:38:05.919Z,7.41
2023-01-10T09:39:05.913Z,7.50
2023-01-10T09:40:05.898Z,7.47
2023-01-10T09:41:05.866Z,7.55
2023-01-10T09:42:05.886Z,7.49
2023-01-10T09:43:05.852Z,7.53
2023-01-10T09:44:05.842Z,7.58
2023-01-10T09:45:05.865Z,7.50
2023-01-10T09:46:05.816Z,7.55
2023-01-10T09:47:11.247Z,7.71
2023-01-10T09:48:06.778Z,7.78
2023-01-10T09:49:05.795Z,7.81
2023-01-10T09:50:05.792Z,7.82
2023-01-10T09:51:05.766Z,7.78
2023-01-10T09:52:05.737Z,7.84
2023-01-10T09:53:05.733Z,7.81
2023-01-10T09:54:12.198Z,7.78
2023-01-10T09:55:07.603Z,7.89
2023-01-10T09:56:05.703Z,7.85
2023-01-10T09:57:05.702Z,7.93
2023-01-10T09:58:05.705Z,7.93
2023-01-10T09:59:05.676Z,8.11
2023-01-10T10:00:05.673Z,7.97
2023-01-10T10:01:05.671Z,8.20
2023-01-10T10:02:05.639Z,8.18
2023-01-10T10:03:05.705Z,8.20
2023-01-10T10:04:05.654Z,8.02
2023-01-10T10:05:05.629Z,8.02
2023-01-10T10:06:11.905Z,8.15
2023-01-10T10:07:06.563Z,8.30
2023-01-10T10:08:05.556Z,8.32
2023-01-10T10:09:05.549Z,8.30
2023-01-10T10:10:05.546Z,8.40
2023-01-10T10:11:05.536Z,8.28
2023-01-10T10:12:05.514Z,8.47
2023-01-10T10:13:05.960Z,8.29
2023-01-10T10:14:05.535Z,8.42
2023-01-10T10:15:05.504Z,8.53
2023-01-10T10:16:05.562Z,8.53
2023-01-10T10:17:05.471Z,8.58
2023-01-10T10:18:05.456Z,8.55
2023-01-10T10:19:05.444Z,8.71
2023-01-10T10:20:05.447Z,8.84
2023-01-10T10:21:05.421Z,8.87
2023-01-10T10:22:05.443Z,8.97
2023-01-10T10:23:05.394Z,8.97
2023-01-10T10:24:05.373Z,9.04
2023-01-10T10:25:05.398Z,9.10
2023-01-10T10:26:05.370Z,9.20
2023-01-10T10:27:05.365Z,9.01
2023-01-10T10:28:05.329Z,8.99
2023-01-10T10:29:05.315Z,9.10
2023-01-10T10:30:05.352Z,9.21
2023-01-10T10:31:05.344Z,9.21
2023-01-10T10:32:05.294Z,9.24
2023-01-10T10:33:05.269Z,9.30
2023-01-10T10:34:05.276Z,9.18
2023-01-10T10:35:05.332Z,9.28
2023-01-10T10:36:05.260Z,9.31
2023-01-10T10:37:05.226Z,9.46
2023-01-10T10:38:05.219Z,9.49
2023-01-10T10:39:05.205Z,9.60
2023-01-10T10:40:05.228Z,9.52
2023-01-10T10:41:05.186Z,9.42
2023-01-10T10:42:05.184Z,9.53
2023-01-10T10:43:05.167Z,9.56
2023-01-10T10:44:05.153Z,9.58
2023-01-10T10:45:05.152Z,9.57
2023-01-10T10:46:05.328Z,9.71
2023-01-10T10:47:05.122Z,9.76
2023-01-10T10:48:05.102Z,9.73
2023-01-10T10:49:05.090Z,9.81
2023-01-10T10:50:05.097Z,9.86
2023-01-10T10:51:05.065Z,10.01
2023-01-10T10:52:05.056Z,9.91
2023-01-10T10:53:05.062Z,9.91
2023-01-10T10:54:05.034Z,9.85
2023-01-10T10:55:05.026Z,9.88
2023-01-10T10:56:05.021Z,9.88
2023-01-10T10:57:04.995Z,9.91
2023-01-10T10:58:05.000Z,9.94
2023-01-10T10:59:04.994Z,9.96
2023-01-10T11:00:04.986Z,9.99
2023-01-10T11:01:05.112Z,9.96
2023-01-10T11:02:05.134Z,9.94
2023-01-10T11:03:04.941Z,9.85
2023-01-10T11:04:04.922Z,9.93
2023-01-10T11:05:05.026Z,9.86
2023-01-10T11:06:04.896Z,9.88
2023-01-10T11:07:04.885Z,9.97
2023-01-10T11:08:04.903Z,9.97
2023-01-10T11:09:04.891Z,9.89
2023-01-10T11:10:04.892Z,9.81
2023-01-10T11:11:04.834Z,9.88
2023-01-10T11:12:04.852Z,9.79
2023-01-10T11:13:04.824Z,9.86
2023-01-10T11:14:04.830Z,9.78
2023-01-10T11:15:04.808Z,9.83
2023-01-10T11:16:04.875Z,9.89
2023-01-10T11:17:04.780Z,9.83
2023-01-10T11:18:04.802Z,9.96
2023-01-10T11:19:04.758Z,9.88
2023-01-10T11:20:04.741Z,9.86
2023-01-10T11:21:04.736Z,10.07
2023-01-10T11:22:04.731Z,9.94
2023-01-10T11:23:04.719Z,10.03
2023-01-10T11:24:04.704Z,10.09
2023-01-10T11:25:04.689Z,9.85
2023-01-10T11:26:04.697Z,9.86
2023-01-10T11:27:04.656Z,9.81
2023-01-10T11:28:04.648Z,9.79
2023-01-10T11:29:04.647Z,9.94
2023-01-10T11:30:04.651Z,9.81
2023-01-10T11:31:04.623Z,9.82
2023-01-10T11:32:04.662Z,9.83
2023-01-10T11:33:04.600Z,9.83
2023-01-10T11:34:04.656Z,9.88
2023-01-10T11:35:04.565Z,9.83
2023-01-10T11:36:04.575Z,9.93
2023-01-10T11:37:04.545Z,9.71
2023-01-10T11:38:04.533Z,9.79
2023-01-10T11:39:04.528Z,9.81
2023-01-10T11:40:04.510Z,9.82
2023-01-10T11:41:04.522Z,9.71
2023-01-10T11:42:04.503Z,9.71
2023-01-10T11:43:04.470Z,9.67
2023-01-10T11:44:04.464Z,9.76
2023-01-10T11:45:04.465Z,9.70
2023-01-10T11:46:04.508Z,9.70
2023-01-10T11:47:04.495Z,9.73
2023-01-10T11:48:04.435Z,9.68
2023-01-10T11:49:07.307Z,9.67
2023-01-10T11:50:04.442Z,9.71
2023-01-10T11:51:04.411Z,9.68
2023-01-10T11:52:04.391Z,9.67
2023-01-10T11:53:04.369Z,9.68
2023-01-10T11:54:04.409Z,9.76
2023-01-10T11:55:04.342Z,9.81
2023-01-10T11:56:04.362Z,9.79
2023-01-10T11:57:04.340Z,9.78
2023-01-10T11:58:04.320Z,9.75
2023-01-10T11:59:04.289Z,9.71
2023-01-10T12:00:04.300Z,9.75
2023-01-10T12:01:04.348Z,9.81
2023-01-10T12:02:04.396Z,9.75
2023-01-10T12:03:04.257Z,9.71
2023-01-10T12:04:04.250Z,9.70
2023-01-10T12:05:04.304Z,9.70
2023-01-10T12:06:04.252Z,9.70
2023-01-10T12:07:04.204Z,9.79
2023-01-10T12:08:04.190Z,9.82
2023-01-10T12:09:04.179Z,9.88
2023-01-10T12:10:04.178Z,9.88
2023-01-10T12:11:04.186Z,9.86
2023-01-10T12:12:04.642Z,9.96
2023-01-10T12:13:04.129Z,9.96
2023-01-10T12:14:04.122Z,10.10
2023-01-10T12:15:04.123Z,10.06
2023-01-10T12:16:04.117Z,10.03
2023-01-10T12:17:04.163Z,10.07
2023-01-10T12:18:04.107Z,10.03
2023-01-10T12:19:04.061Z,10.09
2023-01-10T12:20:04.059Z,10.06
2023-01-10T12:21:04.123Z,10.00
2023-01-10T12:22:04.071Z,10.01
2023-01-10T12:23:04.029Z,10.01
2023-01-10T12:24:04.009Z,9.96
2023-01-10T12:25:04.007Z,9.86
2023-01-10T12:26:11.783Z,9.89
2023-01-10T12:27:04.986Z,9.79
2023-01-10T12:28:03.966Z,9.75
2023-01-10T12:29:03.977Z,9.73
2023-01-10T12:30:03.940Z,9.48
2023-01-10T12:31:03.969Z,9.58
2023-01-10T12:32:03.937Z,9.53
2023-01-10T12:33:03.918Z,9.50
2023-01-10T12:34:03.914Z,9.42
2023-01-10T12:35:03.905Z,9.32
2023-01-10T12:36:03.878Z,9.38
2023-01-10T12:37:03.868Z,9.42
2023-01-10T12:38:03.909Z,9.32
2023-01-10T12:39:03.868Z,9.42
2023-01-10T12:40:03.827Z,9.48
2023-01-10T12:41:03.811Z,9.31
2023-01-10T12:42:03.814Z,9.34
2023-01-10T12:43:03.788Z,9.34
2023-01-10T12:44:03.805Z,9.34
2023-01-10T12:45:03.799Z,9.25
2023-01-10T12:46:12.787Z,9.35
2023-01-10T12:47:08.046Z,9.23
2023-01-10T12:48:03.751Z,9.28
2023-01-10T12:49:03.729Z,9.32
2023-01-10T12:50:03.744Z,9.34
2023-01-10T12:51:03.708Z,9.31
2023-01-10T12:52:03.709Z,9.31
2023-01-10T12:53:03.681Z,9.38
2023-01-10T12:54:03.727Z,9.32
2023-01-10T12:55:03.674Z,9.32
2023-01-10T12:56:03.668Z,9.32
2023-01-10T12:57:03.659Z,9.24
2023-01-10T12:58:03.639Z,9.28
2023-01-10T12:59:03.620Z,9.32
2023-01-10T13:00:03.615Z,9.27
2023-01-10T13:01:03.727Z,9.25
2023-01-10T13:02:03.743Z,9.34
2023-01-10T13:03:03.634Z,9.15
2023-01-10T13:04:03.553Z,9.23
2023-01-10T13:05:03.560Z,9.25
2023-01-10T13:06:03.567Z,9.20
2023-01-10T13:07:03.543Z,9.20
2023-01-10T13:08:03.530Z,9.20
2023-01-10T13:09:03.512Z,9.23
2023-01-10T13:10:03.527Z,9.27
2023-01-10T13:11:03.489Z,9.25
2023-01-10T13:12:03.489Z,9.35
2023-01-10T13:13:03.464Z,9.38
2023-01-10T13:14:03.463Z,9.24
2023-01-10T13:15:03.449Z,9.23
2023-01-10T13:16:03.505Z,9.23
2023-01-10T13:17:03.431Z,9.20
2023-01-10T13:18:03.394Z,9.24
2023-01-10T13:19:03.395Z,9.24
2023-01-10T13:20:03.387Z,9.23
2023-01-10T13:21:03.357Z,9.21
2023-01-10T13:22:03.380Z,9.20
2023-01-10T13:23:03.341Z,9.24
2023-01-10T13:24:03.340Z,9.23
2023-01-10T13:25:03.324Z,9.24
2023-01-10T13:26:03.322Z,9.24
2023-01-10T13:27:03.320Z,9.25
2023-01-10T13:28:03.294Z,9.23
2023-01-10T13:29:03.276Z,9.31
2023-01-10T13:30:03.277Z,9.32
2023-01-10T13:31:03.312Z,9.32
2023-01-10T13:32:03.274Z,9.21
2023-01-10T13:33:03.227Z,9.23
2023-01-10T13:34:03.213Z,9.27
2023-01-10T13:35:03.221Z,9.20
2023-01-10T13:36:03.213Z,9.21
2023-01-10T13:37:03.188Z,9.20
2023-01-10T13:38:03.167Z,9.30
2023-01-10T13:39:03.193Z,9.23
2023-01-10T13:40:03.144Z,9.20
2023-01-10T13:41:03.130Z,9.18
2023-01-10T13:42:03.187Z,9.12
2023-01-10T13:43:03.105Z,9.12
2023-01-10T13:44:03.111Z,9.10
2023-01-10T13:45:03.103Z,9.12
2023-01-10T13:46:03.092Z,9.12
2023-01-10T13:47:03.092Z,9.02
2023-01-10T13:48:03.088Z,9.13
2023-01-10T13:49:03.036Z,8.99
2023-01-10T13:50:03.026Z,9.01
2023-01-10T13:51:03.027Z,8.97
2023-01-10T13:52:03.022Z,8.94
2023-01-10T13:53:03.004Z,9.05
2023-01-10T13:54:03.000Z,9.02
2023-01-10T13:55:02.969Z,8.96
2023-01-10T13:56:02.976Z,8.93
2023-01-10T13:57:02.958Z,9.04
2023-01-10T13:58:02.978Z,8.93
2023-01-10T13:59:02.922Z,8.94
2023-01-10T14:00:02.928Z,8.93
2023-01-10T14:01:03.034Z,8.86
2023-01-10T14:02:03.077Z,8.87
2023-01-10T14:03:02.877Z,8.96
2023-01-10T14:04:02.887Z,8.86
2023-01-10T14:05:02.857Z,8.83
2023-01-10T14:06:02.847Z,8.86
2023-01-10T14:07:02.861Z,8.94
2023-01-10T14:08:02.846Z,8.76
2023-01-10T14:09:02.825Z,8.86
2023-01-10T14:10:04.839Z,8.87
2023-01-10T14:11:02.806Z,8.84
2023-01-10T14:12:02.809Z,8.88
2023-01-10T14:13:02.779Z,8.81
2023-01-10T14:14:02.792Z,8.84
2023-01-10T14:15:02.763Z,8.86
2023-01-10T14:16:04.974Z,8.84
2023-01-10T14:17:02.761Z,8.79
2023-01-10T14:18:02.724Z,8.72
2023-01-10T14:19:02.706Z,8.79
2023-01-10T14:20:02.683Z,8.76
2023-01-10T14:21:02.694Z,8.84
2023-01-10T14:22:02.689Z,8.75
2023-01-10T14:23:02.664Z,8.75
2023-01-10T14:24:02.640Z,8.79
2023-01-10T14:25:02.649Z,8.72
2023-01-10T14:26:02.633Z,8.81
2023-01-10T14:27:02.622Z,8.73
2023-01-10T14:28:02.606Z,8.78
2023-01-10T14:29:02.616Z,8.69
2023-01-10T14:30:02.588Z,8.71
2023-01-10T14:31:02.693Z,8.71
2023-01-10T14:32:02.567Z,8.68
2023-01-10T14:33:02.555Z,8.68
2023-01-10T14:34:02.537Z,8.71
2023-01-10T14:35:02.565Z,8.75
2023-01-10T14:36:02.560Z,8.73
2023-01-10T14:37:02.525Z,8.53
2023-01-10T14:38:02.507Z,8.57
2023-01-10T14:39:02.501Z,8.58
2023-01-10T14:40:02.468Z,8.62
2023-01-10T14:41:02.484Z,8.58
2023-01-10T14:42:02.459Z,8.68
2023-01-10T14:43:02.441Z,8.62
2023-01-10T14:44:02.451Z,8.65
2023-01-10T14:45:02.415Z,8.60
2023-01-10T14:46:02.483Z,8.54
2023-01-10T14:47:02.407Z,8.60
2023-01-10T14:48:02.367Z,8.69
2023-01-10T14:49:02.395Z,8.57
2023-01-10T14:50:02.362Z,8.58
2023-01-10T14:51:02.336Z,8.54
2023-01-10T14:52:02.338Z,8.50
2023-01-10T14:53:02.323Z,8.54
2023-01-10T14:54:02.306Z,8.54
2023-01-10T14:55:02.306Z,8.58
2023-01-10T14:56:02.288Z,8.62
2023-01-10T14:57:02.280Z,8.55
2023-01-10T14:58:02.253Z,8.40
2023-01-10T14:59:02.260Z,8.57
2023-01-10T15:00:02.288Z,8.60
2023-01-10T15:01:02.283Z,8.44
2023-01-10T15:02:02.391Z,8.60
2023-01-10T15:03:02.209Z,8.58
2023-01-10T15:04:02.197Z,8.47
2023-01-10T15:05:02.254Z,8.57
2023-01-10T15:06:02.164Z,8.54
2023-01-10T15:07:02.162Z,8.48
2023-01-10T15:08:02.151Z,8.48
2023-01-10T15:09:02.148Z,8.47
2023-01-10T15:10:02.158Z,8.50
2023-01-10T15:11:02.111Z,8.42
2023-01-10T15:12:02.121Z,8.40
2023-01-10T15:13:02.085Z,8.42
2023-01-10T15:14:02.065Z,8.45
2023-01-10T15:15:02.078Z,8.45
2023-01-10T15:16:02.113Z,8.36
2023-01-10T15:17:02.075Z,8.47
2023-01-10T15:18:02.058Z,8.42
2023-01-10T15:19:02.021Z,8.40
2023-01-10T15:20:02.078Z,8.50
2023-01-10T15:21:02.011Z,8.50
2023-01-10T15:22:02.014Z,8.42
2023-01-10T15:23:01.969Z,8.42
2023-01-10T15:24:01.953Z,8.45
2023-01-10T15:25:01.953Z,8.48
2023-01-10T15:26:01.957Z,8.50
2023-01-10T15:27:01.934Z,8.48
2023-01-10T15:28:01.923Z,8.45
2023-01-10T15:29:01.926Z,8.47
2023-01-10T15:30:02.001Z,8.44
2023-01-10T15:31:01.931Z,8.35
2023-01-10T15:32:01.898Z,8.39
2023-01-10T15:33:01.889Z,8.45
2023-01-10T15:34:01.888Z,8.40
2023-01-10T15:35:01.834Z,8.39
2023-01-10T15:36:01.847Z,8.39
2023-01-10T15:37:01.829Z,8.42
2023-01-10T15:38:01.811Z,8.39
2023-01-10T15:39:01.787Z,8.45
2023-01-10T15:40:01.835Z,8.47
2023-01-10T15:41:01.806Z,8.37
2023-01-10T15:42:01.754Z,8.54
2023-01-10T15:43:01.744Z,8.44
2023-01-10T15:44:01.753Z,8.51
2023-01-10T15:45:01.735Z,8.45
2023-01-10T15:46:01.749Z,8.42
2023-01-10T15:47:01.699Z,8.44
2023-01-10T15:48:01.693Z,8.48
2023-01-10T15:49:01.702Z,8.55
2023-01-10T15:50:01.719Z,8.48
2023-01-10T15:51:01.678Z,8.53
2023-01-10T15:52:01.651Z,8.44
2023-01-10T15:53:01.625Z,8.39
2023-01-10T15:54:01.608Z,8.51
2023-01-10T15:55:01.619Z,8.39
2023-01-10T15:56:01.629Z,8.35
2023-01-10T15:57:01.613Z,8.36
2023-01-10T15:58:01.578Z,8.36
2023-01-10T15:59:01.578Z,8.29
2023-01-10T16:00:01.594Z,8.25
2023-01-10T16:01:01.793Z,8.33
2023-01-10T16:02:01.749Z,8.25
2023-01-10T16:03:01.607Z,8.25
2023-01-10T16:04:01.502Z,8.18
2023-01-10T16:05:01.502Z,8.22
2023-01-10T16:06:01.529Z,8.18
2023-01-10T16:07:01.499Z,8.15
2023-01-10T16:08:01.454Z,8.18
2023-01-10T16:09:01.456Z,8.17
2023-01-10T16:10:02.217Z,7.99
2023-01-10T16:11:01.421Z,7.96
2023-01-10T16:12:01.433Z,7.96
2023-01-10T16:13:01.440Z,7.93
2023-01-10T16:14:01.382Z,7.90
2023-01-10T16:15:01.388Z,7.89
2023-01-10T16:16:01.403Z,7.84
2023-01-10T16:17:01.379Z,7.79
2023-01-10T16:18:01.359Z,7.78
2023-01-10T16:19:02.891Z,7.71
2023-01-10T16:20:01.344Z,7.71
2023-01-10T16:21:01.311Z,7.75
2023-01-10T16:22:01.331Z,7.75
2023-01-10T16:23:01.330Z,7.71
2023-01-10T16:24:01.295Z,7.74
2023-01-10T16:25:01.289Z,7.77
2023-01-10T16:26:01.253Z,7.69
2023-01-10T16:27:01.267Z,7.69
2023-01-10T16:28:01.246Z,7.71
2023-01-10T16:29:01.233Z,7.71
2023-01-10T16:30:01.229Z,7.66
2023-01-10T16:31:01.255Z,7.62
2023-01-10T16:32:01.191Z,7.53
2023-01-10T16:33:01.169Z,7.52
2023-01-10T16:34:01.168Z,7.49
2023-01-10T16:35:01.148Z,7.55
2023-01-10T16:36:01.145Z,7.44
2023-01-10T16:37:01.140Z,7.41
2023-01-10T16:38:01.145Z,7.38
2023-01-10T16:39:01.116Z,7.34
2023-01-10T16:40:01.101Z,7.34
2023-01-10T16:41:01.088Z,7.34
2023-01-10T16:42:01.093Z,7.32
2023-01-10T16:43:01.057Z,7.27
2023-01-10T16:44:01.057Z,7.24
2023-01-10T16:45:01.038Z,7.22
2023-01-10T16:46:01.106Z,7.22
2023-01-10T16:47:01.040Z,7.16
2023-01-10T16:48:01.004Z,7.19
2023-01-10T16:49:01.014Z,7.20
2023-01-10T16:50:00.988Z,7.24
2023-01-10T16:51:00.973Z,7.16
2023-01-10T16:52:01.008Z,7.16
2023-01-10T16:53:00.945Z,7.24
2023-01-10T16:54:00.953Z,7.15
2023-01-10T16:55:00.930Z,7.20
2023-01-10T16:56:00.907Z,7.13
2023-01-10T16:57:00.916Z,7.16
2023-01-10T16:58:00.889Z,7.17
2023-01-10T16:59:00.899Z,7.13
2023-01-10T17:00:00.879Z,7.09
2023-01-10T17:01:00.961Z,7.22
2023-01-10T17:02:00.946Z,7.12
2023-01-10T17:03:00.847Z,7.19
2023-01-10T17:04:00.856Z,7.12
2023-01-10T17:05:00.828Z,7.16
2023-01-10T17:06:00.806Z,7.05
2023-01-10T17:07:00.801Z,7.15
2023-01-10T17:08:00.852Z,7.04
2023-01-10T17:09:00.765Z,7.09
2023-01-10T17:10:00.816Z,7.02
2023-01-10T17:11:00.764Z,7.23
2023-01-10T17:12:00.750Z,7.20
2023-01-10T17:13:00.730Z,7.12
2023-01-10T17:14:00.714Z,7.01
2023-01-10T17:15:00.709Z,7.05
2023-01-10T17:16:00.781Z,7.05
2023-01-10T17:17:03.237Z,7.13
2023-01-10T17:18:00.675Z,7.05
2023-01-10T17:19:00.664Z,7.08
2023-01-10T17:20:00.635Z,6.98
2023-01-10T17:21:00.675Z,7.01
2023-01-10T17:22:00.653Z,7.16
2023-01-10T17:23:00.634Z,7.05
2023-01-10T17:24:00.594Z,7.13
2023-01-10T17:25:00.582Z,7.04
2023-01-10T17:26:00.599Z,7.05
2023-01-10T17:27:00.584Z,6.99
2023-01-10T17:28:00.557Z,6.90
2023-01-10T17:29:00.547Z,6.87
2023-01-10T17:30:00.533Z,6.89
2023-01-10T17:31:00.515Z,6.98
2023-01-10T17:32:00.587Z,6.90
2023-01-10T17:33:00.503Z,6.97
2023-01-10T17:34:00.475Z,7.01
2023-01-10T17:35:00.489Z,6.94
2023-01-10T17:36:00.452Z,7.02
2023-01-10T17:37:00.477Z,7.05
2023-01-10T17:38:00.440Z,6.81
2023-01-10T17:39:00.446Z,6.84
2023-01-10T17:40:00.426Z,6.87
2023-01-10T17:41:00.400Z,6.87
2023-01-10T17:42:00.419Z,6.95
2023-01-10T17:43:00.388Z,6.90
2023-01-10T17:44:00.360Z,6.99
2023-01-10T17:45:00.365Z,6.89
2023-01-10T17:46:00.448Z,6.91
2023-01-10T17:47:00.343Z,6.87
2023-01-10T17:48:00.334Z,6.94
2023-01-10T17:49:00.334Z,6.87
2023-01-10T17:50:00.291Z,6.86
2023-01-10T17:51:00.313Z,6.90
2023-01-10T17:52:00.298Z,6.90
2023-01-10T17:53:00.261Z,6.79
2023-01-10T17:54:00.265Z,6.90
2023-01-10T17:55:00.246Z,6.81
2023-01-10T17:56:00.310Z,6.77
2023-01-10T17:57:00.236Z,6.76
2023-01-10T17:58:00.223Z,6.80
2023-01-10T17:59:00.201Z,6.77
2023-01-10T18:00:00.190Z,6.91
2023-01-10T18:01:00.277Z,6.81
2023-01-10T18:02:00.424Z,6.73
2023-01-10T18:03:00.311Z,6.73
2023-01-10T18:04:00.153Z,6.72
2023-01-10T18:05:00.143Z,6.77
2023-01-10T18:06:00.127Z,6.79
2023-01-10T18:07:00.105Z,6.83
2023-01-10T18:08:00.108Z,6.81
2023-01-10T18:09:00.115Z,6.73
2023-01-10T18:10:00.128Z,6.71
2023-01-10T18:11:00.122Z,6.72
2023-01-10T18:12:00.063Z,6.71
2023-01-10T18:13:02.516Z,6.77
2023-01-10T18:14:00.061Z,6.79
2023-01-10T18:15:00.043Z,6.68
2023-01-10T18:16:00.006Z,6.66
2023-01-10T18:17:00.081Z,6.72
2023-01-10T18:17:59.996Z,6.71
2023-01-10T18:18:59.999Z,6.72
2023-01-10T18:19:59.976Z,6.73
2023-01-10T18:20:59.949Z,6.72
2023-01-10T18:21:59.941Z,6.59
2023-01-10T18:22:59.941Z,6.69
2023-01-10T18:23:59.951Z,6.69
2023-01-10T18:24:59.905Z,6.71
2023-01-10T18:25:59.924Z,6.77
2023-01-10T18:26:59.893Z,6.63
2023-01-10T18:27:59.866Z,6.68
2023-01-10T18:28:59.872Z,6.79
2023-01-10T18:29:59.877Z,6.68
2023-01-10T18:30:59.878Z,6.59
2023-01-10T18:31:59.821Z,6.65
2023-01-10T18:32:59.829Z,6.59
2023-01-10T18:33:59.836Z,6.56
2023-01-10T18:34:59.787Z,6.71
2023-01-10T18:35:59.779Z,6.63
2023-01-10T18:36:59.776Z,6.73
2023-01-10T18:37:59.769Z,6.61
2023-01-10T18:38:59.773Z,6.58
2023-01-10T18:39:59.733Z,6.53
2023-01-10T18:40:59.717Z,6.66
2023-01-10T18:41:59.722Z,6.62
2023-01-10T18:42:59.707Z,6.66
2023-01-10T18:43:59.699Z,6.63
2023-01-10T18:44:59.677Z,6.58
2023-01-10T18:45:59.744Z,6.69
2023-01-10T18:46:59.677Z,6.61
2023-01-10T18:47:59.641Z,6.58
2023-01-10T18:48:59.672Z,6.62
2023-01-10T18:49:59.624Z,6.63
2023-01-10T18:50:59.630Z,6.66
2023-01-10T18:51:59.615Z,6.59
2023-01-10T18:52:59.599Z,6.59
2023-01-10T18:53:59.606Z,6.65
2023-01-10T18:55:02.168Z,6.58
2023-01-10T18:55:59.566Z,6.53
2023-01-10T18:56:59.544Z,6.54
2023-01-10T18:57:59.529Z,6.56
2023-01-10T18:58:59.515Z,6.54
2023-01-10T18:59:59.521Z,6.50
2023-01-10T19:00:59.604Z,6.54
2023-01-10T19:01:59.509Z,6.58
2023-01-10T19:02:59.497Z,6.50
2023-01-10T19:03:59.470Z,6.58
2023-01-10T19:04:59.441Z,6.54
2023-01-10T19:05:59.523Z,6.51
2023-01-10T19:06:59.419Z,6.59
2023-01-10T19:07:59.434Z,6.69
2023-01-10T19:08:59.414Z,6.54
2023-01-10T19:09:59.399Z,6.69
2023-01-10T19:11:12.948Z,6.62
2023-01-10T19:12:00.370Z,6.61
2023-01-10T19:12:59.360Z,6.63
2023-01-10T19:13:59.360Z,6.66
2023-01-10T19:14:59.345Z,6.65
2023-01-10T19:15:59.381Z,6.66
2023-01-10T19:16:59.331Z,6.68
2023-01-10T19:17:59.339Z,6.63
2023-01-10T19:18:59.290Z,6.69
2023-01-10T19:19:59.283Z,6.80
2023-01-10T19:20:59.283Z,6.72
2023-01-10T19:21:59.294Z,6.68
2023-01-10T19:22:59.243Z,6.73
2023-01-10T19:23:59.236Z,6.71
2023-01-10T19:24:59.297Z,6.79
2023-01-10T19:25:59.232Z,6.80
2023-01-10T19:26:59.238Z,6.80
2023-01-10T19:27:59.204Z,6.81
2023-01-10T19:28:59.182Z,6.84
2023-01-10T19:29:59.183Z,6.79
2023-01-10T19:31:04.552Z,6.86
2023-01-10T19:32:00.287Z,6.89
2023-01-10T19:32:59.146Z,7.08
2023-01-10T19:33:59.163Z,7.02
2023-01-10T19:34:59.199Z,6.97
2023-01-10T19:35:59.098Z,7.01
2023-01-10T19:36:59.110Z,7.01
2023-01-10T19:37:59.095Z,6.94
2023-01-10T19:38:59.114Z,7.05
2023-01-10T19:39:59.058Z,7.08
2023-01-10T19:40:59.052Z,7.12
2023-01-10T19:41:59.062Z,7.13
2023-01-10T19:42:59.028Z,7.17
2023-01-10T19:43:59.008Z,7.23
2023-01-10T19:44:59.048Z,7.09
2023-01-10T19:45:59.064Z,7.24
2023-01-10T19:46:59.001Z,7.32
2023-01-10T19:47:58.964Z,7.35
2023-01-10T19:48:58.950Z,7.31
2023-01-10T19:49:58.968Z,7.26
2023-01-10T19:50:58.937Z,7.23
2023-01-10T19:51:58.951Z,7.42
2023-01-10T19:52:58.912Z,7.41
2023-01-10T19:53:58.915Z,7.37
2023-01-10T19:54:59.004Z,7.32
2023-01-10T19:55:59.779Z,7.41
2023-01-10T19:56:58.903Z,7.44
2023-01-10T19:57:58.848Z,7.47
2023-01-10T19:58:58.830Z,7.44
2023-01-10T19:59:58.828Z,7.47
2023-01-10T20:00:58.825Z,7.44
2023-01-10T20:01:58.885Z,7.44
2023-01-10T20:02:58.912Z,7.37
2023-01-10T20:03:58.843Z,7.58
2023-01-10T20:04:58.885Z,7.50
2023-01-10T20:05:58.794Z,7.50
2023-01-10T20:06:58.876Z,7.56
2023-01-10T20:07:58.750Z,7.47
2023-01-10T20:08:58.729Z,7.47
2023-01-10T20:09:58.715Z,7.47
2023-01-10T20:10:58.711Z,7.50
2023-01-10T20:11:58.703Z,7.55
2023-01-10T20:12:58.717Z,7.59
2023-01-10T20:13:58.699Z,7.59
2023-01-10T20:14:58.688Z,7.75
2023-01-10T20:15:58.731Z,7.71
2023-01-10T20:16:58.632Z,7.81
2023-01-10T20:17:58.622Z,7.81
2023-01-10T20:18:58.625Z,7.82
2023-01-10T20:19:58.602Z,7.90
2023-01-10T20:20:58.598Z,7.89
2023-01-10T20:21:58.599Z,7.89
2023-01-10T20:22:58.587Z,7.92
2023-01-10T20:23:58.573Z,7.96
2023-01-10T20:24:58.543Z,8.02
2023-01-10T20:25:58.545Z,7.96
2023-01-10T20:26:58.541Z,7.89
2023-01-10T20:27:58.522Z,7.92
2023-01-10T20:28:58.523Z,8.11
2023-01-10T20:29:58.487Z,8.07
2023-01-10T20:30:58.506Z,8.10
2023-01-10T20:31:58.478Z,8.02
2023-01-10T20:32:58.500Z,8.02
2023-01-10T20:33:58.498Z,7.94
2023-01-10T20:34:58.453Z,8.08
2023-01-10T20:35:58.435Z,8.08
2023-01-10T20:36:58.418Z,8.08
2023-01-10T20:37:58.418Z,8.15
2023-01-10T20:38:58.415Z,8.14
2023-01-10T20:39:58.390Z,8.14
2023-01-10T20:40:58.357Z,8.12
2023-01-10T20:41:58.365Z,8.18
2023-01-10T20:42:58.336Z,8.22
2023-01-10T20:43:58.330Z,8.25
2023-01-10T20:44:58.341Z,8.15
2023-01-10T20:45:58.305Z,8.17
2023-01-10T20:46:58.293Z,8.30
2023-01-10T20:47:58.309Z,8.25
2023-01-10T20:49:00.103Z,8.20
2023-01-10T20:49:58.298Z,8.12
2023-01-10T20:50:58.257Z,8.17
2023-01-10T20:51:58.257Z,8.20
2023-01-10T20:52:58.238Z,8.18
2023-01-10T20:53:58.237Z,8.28
2023-01-10T20:54:58.238Z,8.21
2023-01-10T20:56:00.259Z,8.22
2023-01-10T20:56:58.195Z,8.18
2023-01-10T20:57:58.171Z,8.32
2023-01-10T20:58:58.157Z,8.22
2023-01-10T20:59:58.164Z,8.29
2023-01-10T21:00:58.143Z,8.21
2023-01-10T21:01:58.196Z,8.22
2023-01-10T21:02:58.166Z,8.22
2023-01-10T21:03:58.104Z,8.26
2023-01-10T21:04:58.099Z,8.33
2023-01-10T21:05:58.093Z,8.25
2023-01-10T21:06:58.128Z,8.28
2023-01-10T21:07:58.069Z,8.30
2023-01-10T21:08:58.040Z,8.29
2023-01-10T21:09:58.059Z,8.29
2023-01-10T21:10:58.046Z,8.30
2023-01-10T21:12:10.668Z,8.33
2023-01-10T21:12:59.007Z,8.29
2023-01-10T21:13:58.005Z,8.33
2023-01-10T21:14:57.998Z,8.36
2023-01-10T21:15:58.036Z,8.37
2023-01-10T21:16:57.964Z,8.44
2023-01-10T21:17:57.955Z,8.40
2023-01-10T21:18:57.937Z,8.36
2023-01-10T21:19:57.936Z,8.36
2023-01-10T21:20:57.921Z,8.37
2023-01-10T21:21:57.927Z,8.45
2023-01-10T21:22:59.947Z,8.42
2023-01-10T21:23:57.889Z,8.45